Time;durP1;ratioP1;P1;durP2;ratioP2;P2;SDS_P1;SDS_P2;PMS_P1;PMS_P2;Temp;Humidity;BMP_temperature;BMP_pressure;BME280_temperature;BME280_humidity;BME280_pressure;Samples;Min_cycle;Max_cycle;Signal;HPM_P1;HPM_P2
2023/09/28 00:02:07;;;;;;;15.15;8.23;;;;;;;-144.73;100.00;54436.44;5050164;28;20539;-74
2023/09/28 00:04:33;;;;;;;19.10;10.32;;;;;;;-144.73;100.00;54438.50;5049546;28;20040;-74
2023/09/28 00:06:58;;;;;;;19.52;11.23;;;;;;;-144.73;100.00;54456.97;5051421;28;20479;-74
2023/09/28 00:09:24;;;;;;;14.02;8.48;;;;;;;-144.73;100.00;54456.97;5050618;28;20033;-74
2023/09/28 00:11:50;;;;;;;18.33;8.68;;;;;;;-144.73;100.00;54456.97;5050573;28;20028;-74
2023/09/28 00:14:15;;;;;;;17.85;9.15;;;;;;;-144.73;100.00;54446.69;5050793;28;20037;-74
2023/09/28 00:16:41;;;;;;;15.30;8.00;;;;;;;-144.73;100.00;54452.84;5049393;28;20025;-74
2023/09/28 00:19:07;;;;;;;16.38;7.85;;;;;;;-144.73;100.00;54456.97;5049785;28;20033;-73
2023/09/28 00:21:32;;;;;;;17.10;7.38;;;;;;;-144.73;100.00;54438.50;5049690;28;20084;-73
2023/09/28 00:23:58;;;;;;;24.77;9.13;;;;;;;-144.73;100.00;54448.75;5049641;28;20029;-73
2023/09/28 00:26:23;;;;;;;12.73;8.00;;;;;;;-144.73;100.00;54432.31;5049861;28;20021;-73
2023/09/28 00:28:50;;;;;;;16.95;7.93;;;;;;;-144.73;100.00;54481.59;5048995;28;20036;-73
2023/09/28 00:31:16;;;;;;;17.17;9.13;;;;;;;-144.73;100.00;54461.06;5043307;28;20028;-74
2023/09/28 00:33:43;;;;;;;12.07;8.45;;;;;;;-144.73;100.00;54440.53;5048898;28;20520;-74
2023/09/28 00:36:08;;;;;;;14.30;8.10;;;;;;;-144.73;100.00;54426.16;5050095;28;20046;-74
2023/09/28 00:38:33;;;;;;;13.55;8.50;;;;;;;-144.73;100.00;54485.69;5049125;28;20037;-74
2023/09/28 00:40:59;;;;;;;18.10;9.05;;;;;;;-144.73;100.00;54448.75;5050109;28;20029;-74
2023/09/28 00:43:26;;;;;;;17.92;9.20;;;;;;;-144.73;100.00;54446.69;5044321;28;20033;-74
2023/09/28 00:45:51;;;;;;;15.25;9.38;;;;;;;-144.73;100.00;54432.31;5048449;28;20052;-74
2023/09/28 00:48:17;;;;;;;16.77;8.82;;;;;;;-144.73;100.00;54432.31;5049783;28;20049;-74
2023/09/28 00:50:42;;;;;;;15.05;8.75;;;;;;;-144.73;100.00;54428.22;5049254;28;20020;-74
2023/09/28 00:53:08;;;;;;;18.85;9.27;;;;;;;-144.73;100.00;54461.06;5049986;28;20037;-74
2023/09/28 00:55:36;;;;;;;11.15;8.23;;;;;;;-144.73;100.00;54469.28;5049254;28;20029;-74
2023/09/28 00:58:04;;;;;;;13.57;9.45;;;;;;;-144.73;100.00;54479.53;5048724;28;20037;-74
2023/09/28 01:00:33;;;;;;;22.20;10.00;;;;;;;-144.73;100.00;54475.44;5043758;28;20054;-74
2023/09/28 01:03:02;;;;;;;17.55;12.35;;;;;;;-144.73;100.00;54448.75;5065895;28;20036;-74
2023/09/28 01:05:31;;;;;;;18.42;10.57;;;;;;;-144.73;100.00;54440.53;5049181;28;20071;-74
2023/09/28 01:08:07;;;;;;;12.40;9.98;;;;;;;-144.73;100.00;54481.59;5064553;28;20036;-74
2023/09/28 01:10:35;;;;;;;17.08;10.70;;;;;;;-144.73;100.00;54481.59;5046328;28;20017;-74
2023/09/28 01:13:11;;;;;;;15.98;9.77;;;;;;;-144.73;100.00;54434.38;5065055;28;20033;-73
2023/09/28 01:15:43;;;;;;;13.68;9.75;;;;;;;-144.73;100.00;54481.59;5049119;28;20110;-73
2023/09/28 01:18:16;;;;;;;18.05;10.48;;;;;;;-144.73;100.00;54465.16;5048701;28;20401;-73
2023/09/28 01:20:43;;;;;;;18.30;11.93;;;;;;;-144.73;100.00;54440.53;5048498;28;20039;-73
2023/09/28 01:23:09;;;;;;;15.80;10.50;;;;;;;-144.73;100.00;54444.66;5049560;28;20025;-73
2023/09/28 01:25:35;;;;;;;19.48;11.40;;;;;;;-144.73;100.00;54465.16;5050426;28;20100;-73
2023/09/28 01:28:01;;;;;;;16.85;11.65;;;;;;;-144.73;100.00;54477.47;5049518;28;20036;-73
2023/09/28 01:30:27;;;;;;;23.25;10.50;;;;;;;-144.73;100.00;54454.91;5048849;28;20021;-73
2023/09/28 01:32:53;;;;;;;14.45;10.38;;;;;;;-144.73;100.00;54424.13;5065055;28;20052;-73
2023/09/28 01:35:19;;;;;;;17.27;10.82;;;;;;;-144.73;100.00;54465.16;5049638;28;20028;-73
2023/09/28 01:38:06;;;;;;;14.85;10.85;;;;;;;-144.73;100.00;54454.91;5048852;28;20024;-73
2023/09/28 01:40:31;;;;;;;17.30;10.20;;;;;;;-144.73;100.00;54463.13;5048650;28;20104;-73
2023/09/28 01:42:57;;;;;;;12.32;10.60;;;;;;;-144.73;100.00;54440.53;5063591;28;20463;-73
2023/09/28 01:45:22;;;;;;;17.70;11.38;;;;;;;-144.73;100.00;54456.97;5064919;28;20547;-73
2023/09/28 01:47:48;;;;;;;20.08;10.98;;;;;;;-144.73;100.00;54461.06;5052991;28;20041;-73
2023/09/28 01:50:13;;;;;;;21.50;10.85;;;;;;;-144.73;100.00;54485.69;5053401;28;20472;-73
2023/09/28 01:52:38;;;;;;;19.63;11.85;;;;;;;-144.73;100.00;54432.31;5053405;28;20365;-73
2023/09/28 01:55:04;;;;;;;20.63;12.95;;;;;;;-144.73;100.00;54479.53;5054128;28;20020;-73
2023/09/28 01:57:31;;;;;;;18.27;12.35;;;;;;;-144.73;100.00;54442.59;5051634;28;20033;-73
2023/09/28 01:59:59;;;;;;;18.98;11.73;;;;;;;-144.73;100.00;54454.91;5061356;28;20013;-73
2023/09/28 02:02:24;;;;;;;20.52;11.50;;;;;;;-144.73;100.00;54498.00;5065033;28;20017;-73
2023/09/28 02:04:49;;;;;;;18.10;11.00;;;;;;;-144.73;100.00;54483.66;5051130;28;20041;-73
2023/09/28 02:07:15;;;;;;;13.75;11.73;;;;;;;-144.73;100.00;54442.59;5053938;28;20024;-73
2023/09/28 02:09:40;;;;;;;15.07;11.50;;;;;;;-144.73;100.00;54465.16;5048651;28;20051;-73
2023/09/28 02:12:06;;;;;;;24.83;11.55;;;;;;;-144.73;100.00;54452.84;5068975;28;20016;-72
2023/09/28 02:14:32;;;;;;;16.10;11.63;;;;;;;-144.73;100.00;54442.59;5052301;28;20029;-72
2023/09/28 02:16:57;;;;;;;18.58;10.88;;;;;;;-144.73;100.00;54432.31;5052625;28;20044;-72
2023/09/28 02:19:23;;;;;;;17.17;12.80;;;;;;;-144.73;100.00;54481.59;5050587;28;20021;-72
2023/09/28 02:21:48;;;;;;;15.80;10.63;;;;;;;-144.73;100.00;54424.13;5052389;28;20020;-72
2023/09/28 02:24:14;;;;;;;16.02;11.70;;;;;;;-144.73;100.00;54440.53;5069137;28;20036;-72
2023/09/28 02:26:39;;;;;;;23.05;12.75;;;;;;;-144.73;100.00;54465.16;5051893;28;20044;-73
2023/09/28 02:29:05;;;;;;;22.50;12.48;;;;;;;-144.73;100.00;54452.84;5065731;28;20040;-72
2023/09/28 02:31:31;;;;;;;15.27;12.45;;;;;;;-144.73;100.00;54456.97;5046825;28;20021;-72
2023/09/28 02:33:57;;;;;;;23.63;13.02;;;;;;;-144.73;100.00;54473.38;5052317;28;20036;-72
2023/09/28 02:36:23;;;;;;;27.00;14.55;;;;;;;-144.73;100.00;54424.13;5052156;28;20025;-72
2023/09/28 02:38:48;;;;;;;23.00;13.82;;;;;;;-144.73;100.00;54485.69;5052525;28;20064;-72
2023/09/28 02:41:18;;;;;;;25.13;13.73;;;;;;;-144.73;100.00;54473.38;5052105;28;20021;-72
2023/09/28 02:43:44;;;;;;;20.58;13.43;;;;;;;-144.73;100.00;54469.28;5046870;28;20033;-72
2023/09/28 02:46:09;;;;;;;24.85;14.07;;;;;;;-144.73;100.00;54432.31;5068899;28;20117;-72
2023/09/28 02:48:34;;;;;;;23.85;14.02;;;;;;;-144.73;100.00;54465.16;5052609;28;20036;-72
2023/09/28 02:51:04;;;;;;;26.45;15.45;;;;;;;-144.73;100.00;54446.69;5052118;28;20025;-72
2023/09/28 02:53:30;;;;;;;21.75;13.20;;;;;;;-144.73;100.00;54491.84;5051379;28;20048;-72
2023/09/28 02:55:56;;;;;;;21.70;14.40;;;;;;;-144.73;100.00;54477.47;5068069;28;20383;-72
2023/09/28 02:58:22;;;;;;;24.92;14.98;;;;;;;-144.73;100.00;54475.44;5052694;28;20033;-72
2023/09/28 03:00:48;;;;;;;27.48;15.30;;;;;;;-144.73;100.00;54467.22;5047996;28;20043;-72
2023/09/28 03:03:14;;;;;;;22.60;15.65;;;;;;;-144.73;100.00;54461.06;5065531;28;20535;-72
2023/09/28 03:05:40;;;;;;;20.23;15.18;;;;;;;-144.73;100.00;54436.44;5051727;28;20021;-72
2023/09/28 03:08:11;;;;;;;23.42;15.18;;;;;;;-144.73;100.00;54481.59;5051935;28;20075;-72
2023/09/28 03:10:44;;;;;;;22.80;17.15;;;;;;;-144.73;100.00;54485.69;5051359;28;20087;-72
2023/09/28 03:13:11;;;;;;;30.30;16.27;;;;;;;-144.73;100.00;54489.81;5068004;28;20037;-72
2023/09/28 03:15:39;;;;;;;21.35;15.55;;;;;;;-144.73;100.00;54456.97;5051678;28;20073;-72
2023/09/28 03:18:04;;;;;;;23.30;16.15;;;;;;;-144.73;100.00;54459.00;5068169;28;20058;-72
2023/09/28 03:20:30;;;;;;;25.73;15.52;;;;;;;-144.73;100.00;54483.66;5053334;28;20024;-72
2023/09/28 03:22:55;;;;;;;28.50;17.58;;;;;;;-144.73;100.00;54498.00;5068156;28;20033;-72
2023/09/28 03:25:22;;;;;;;25.17;16.27;;;;;;;-144.73;100.00;54465.16;5050378;28;20108;-72
2023/09/28 03:27:52;;;;;;;26.80;15.80;;;;;;;-144.73;100.00;54483.66;5069119;28;20496;-72
2023/09/28 03:30:19;;;;;;;30.23;15.93;;;;;;;-144.73;100.00;54469.28;5050251;28;20365;-73
2023/09/28 03:32:47;;;;;;;24.35;15.48;;;;;;;-144.73;100.00;54465.16;5050526;28;20104;-72
2023/09/28 03:35:12;;;;;;;27.33;16.60;;;;;;;-144.73;100.00;54604.75;5051124;28;20033;-72
2023/09/28 03:37:38;;;;;;;24.23;16.02;;;;;;;-144.73;100.00;54473.38;5051022;28;20028;-72
2023/09/28 03:40:10;;;;;;;29.15;17.20;;;;;;;-144.73;100.00;54477.47;5052656;28;20032;-72
2023/09/28 03:42:38;;;;;;;27.17;15.43;;;;;;;-144.73;100.00;54440.53;5051782;28;20048;-72
2023/09/28 03:45:04;;;;;;;32.30;17.23;;;;;;;-144.73;100.00;54481.59;5051272;28;20031;-72
2023/09/28 03:47:31;;;;;;;24.23;16.42;;;;;;;-144.73;100.00;54483.66;5049257;28;20024;-72
2023/09/28 03:49:57;;;;;;;28.15;16.90;;;;;;;-144.73;100.00;54452.84;5048328;28;20028;-72
2023/09/28 03:52:23;;;;;;;26.73;15.38;;;;;;;-144.73;100.00;54465.16;5052297;28;20100;-72
2023/09/28 03:54:48;;;;;;;26.60;17.52;;;;;;;-144.73;100.00;54493.91;5066861;28;20514;-73
2023/09/28 03:57:13;;;;;;;36.80;16.75;;;;;;;-144.73;100.00;54481.59;5067406;28;20033;-71
2023/09/28 03:59:39;;;;;;;29.27;16.83;;;;;;;-144.73;100.00;54463.13;5047042;28;20033;-72
2023/09/28 04:02:06;;;;;;;37.47;16.80;;;;;;;-144.73;100.00;54452.84;5051681;28;20115;-72
2023/09/28 04:04:31;;;;;;;36.33;15.77;;;;;;;-144.73;100.00;54481.59;5046943;28;20091;-72
2023/09/28 04:06:57;;;;;;;28.15;16.70;;;;;;;-144.73;100.00;54440.53;5051090;28;20067;-72
2023/09/28 04:09:22;;;;;;;27.17;16.60;;;;;;;-144.73;100.00;54493.91;5050372;28;20035;-72
2023/09/28 04:11:49;;;;;;;34.10;18.17;;;;;;;-144.73;100.00;54481.59;5052107;28;20051;-73
2023/09/28 04:14:14;;;;;;;28.98;16.92;;;;;;;-144.73;100.00;54473.38;5066965;28;20049;-72
2023/09/28 04:16:39;;;;;;;26.00;17.02;;;;;;;-144.73;100.00;54485.69;5050466;28;20079;-72
2023/09/28 04:19:05;;;;;;;26.17;16.98;;;;;;;-144.73;100.00;54469.28;5050575;28;20119;-72
2023/09/28 04:21:31;;;;;;;25.33;15.30;;;;;;;-144.73;100.00;54456.97;5067215;28;20020;-72
2023/09/28 04:23:58;;;;;;;23.48;16.25;;;;;;;-144.73;100.00;54477.47;5047621;28;20028;-72
2023/09/28 04:26:23;;;;;;;24.88;15.82;;;;;;;-144.73;100.00;54465.16;5050338;28;20107;-72
2023/09/28 04:28:49;;;;;;;22.23;17.23;;;;;;;-144.73;100.00;54473.38;5054997;28;20108;-72
2023/09/28 04:31:14;;;;;;;24.73;15.82;;;;;;;-144.73;100.00;54502.13;5064322;28;20033;-72
2023/09/28 04:33:40;;;;;;;24.55;15.63;;;;;;;-144.73;100.00;54489.81;5050555;28;20029;-72
2023/09/28 04:36:07;;;;;;;22.83;15.50;;;;;;;-144.73;100.00;54477.47;5049384;28;20028;-72
2023/09/28 04:38:33;;;;;;;24.00;16.55;;;;;;;-144.73;100.00;54483.66;5047817;28;20051;-72
2023/09/28 04:41:00;;;;;;;27.42;15.90;;;;;;;-144.73;100.00;54510.31;5050862;28;20032;-72
2023/09/28 04:43:26;;;;;;;24.08;17.20;;;;;;;-144.73;100.00;54444.66;5049210;28;20056;-72
2023/09/28 04:45:51;;;;;;;29.50;15.75;;;;;;;-144.73;100.00;54481.59;5066544;28;20464;-72
2023/09/28 04:48:17;;;;;;;25.40;16.52;;;;;;;-144.73;100.00;54485.69;5046924;28;20064;-72
2023/09/28 04:50:42;;;;;;;28.65;16.92;;;;;;;-144.73;100.00;54493.91;5050547;28;20013;-72
2023/09/28 04:53:08;;;;;;;36.78;17.23;;;;;;;-144.73;100.00;54510.31;5056324;28;20049;-72
2023/09/28 04:55:34;;;;;;;27.38;15.73;;;;;;;-144.73;100.00;54493.91;5049543;28;20029;-72
2023/09/28 04:58:00;;;;;;;25.10;17.27;;;;;;;-144.73;100.00;54485.69;5046422;28;20029;-72
2023/09/28 05:00:27;;;;;;;24.85;15.45;;;;;;;-144.73;100.00;54461.06;5065876;28;20119;-72
2023/09/28 05:02:53;;;;;;;33.83;16.95;;;;;;;-144.73;100.00;54510.31;5049010;28;20025;-72
2023/09/28 05:05:18;;;;;;;26.42;17.17;;;;;;;-144.73;100.00;54485.69;5063700;28;20105;-72
2023/09/28 05:07:44;;;;;;;29.38;16.92;;;;;;;-144.73;100.00;54481.59;5049221;28;20112;-72
2023/09/28 05:10:10;;;;;;;34.55;17.35;;;;;;;-144.73;100.00;54493.91;5065472;28;20032;-73
2023/09/28 05:12:35;;;;;;;34.15;19.15;;;;;;;-144.73;100.00;54473.38;5048337;28;20017;-73
2023/09/28 05:15:02;;;;;;;24.90;17.13;;;;;;;-144.73;100.00;54481.59;5048246;28;20031;-73
2023/09/28 05:17:27;;;;;;;24.25;16.15;;;;;;;-144.73;100.00;54477.47;5046246;28;20017;-73
2023/09/28 05:19:53;;;;;;;32.60;17.77;;;;;;;-144.73;100.00;54485.69;5050739;28;20028;-73
2023/09/28 05:22:18;;;;;;;31.40;17.33;;;;;;;-144.73;100.00;54448.75;5050639;28;20031;-73
2023/09/28 05:24:45;;;;;;;27.15;15.77;;;;;;;-144.73;100.00;54469.28;5050504;28;20025;-73
2023/09/28 05:27:11;;;;;;;26.35;17.40;;;;;;;-144.73;100.00;54469.28;5065771;28;20023;-73
2023/09/28 05:29:36;;;;;;;25.65;16.85;;;;;;;-144.73;100.00;54502.13;5065162;28;20116;-73
2023/09/28 05:32:04;;;;;;;30.02;18.35;;;;;;;-144.73;100.00;54456.97;5048799;28;20086;-73
2023/09/28 05:34:29;;;;;;;32.50;18.25;;;;;;;-144.73;100.00;54452.84;5048287;28;20029;-73
2023/09/28 05:36:55;;;;;;;27.88;16.60;;;;;;;-144.73;100.00;54510.31;5049660;28;20049;-73
2023/09/28 05:39:21;;;;;;;24.27;15.48;;;;;;;-144.73;100.00;54524.69;5064505;28;20087;-73
2023/09/28 05:41:47;;;;;;;25.40;17.95;;;;;;;-144.73;100.00;54481.59;5049170;28;20025;-73
2023/09/28 05:44:13;;;;;;;39.60;19.15;;;;;;;-144.73;100.00;54444.66;5049122;28;20029;-73
2023/09/28 05:46:39;;;;;;;30.25;18.15;;;;;;;-144.73;100.00;54461.06;5048546;28;20028;-73
2023/09/28 05:49:05;;;;;;;29.63;17.10;;;;;;;-144.73;100.00;54477.47;5065124;28;20634;-74
2023/09/28 05:51:31;;;;;;;23.13;16.48;;;;;;;-144.73;100.00;54489.81;5063441;28;20112;-75
2023/09/28 05:53:56;;;;;;;35.63;17.70;;;;;;;-144.73;100.00;54493.91;5048512;28;20504;-74
2023/09/28 05:56:21;;;;;;;41.33;19.70;;;;;;;-144.73;100.00;54461.06;5049976;28;20468;-75
2023/09/28 05:58:48;;;;;;;36.60;17.80;;;;;;;-144.73;100.00;54477.47;5048784;28;20064;-75
2023/09/28 06:01:17;;;;;;;29.30;18.33;;;;;;;-144.73;100.00;54539.06;5039883;28;20033;-75
2023/09/28 06:03:42;;;;;;;25.52;19.38;;;;;;;-144.73;100.00;54477.47;5041677;28;20442;-74
2023/09/28 06:06:18;;;;;;;30.63;17.95;;;;;;;-144.73;100.00;54452.84;5062307;28;20025;-73
2023/09/28 06:08:46;;;;;;;26.98;18.63;;;;;;;-144.73;100.00;54452.84;5028846;28;20037;-75
2023/09/28 06:11:13;;;;;;;26.88;18.52;;;;;;;-144.73;100.00;54485.69;5035687;28;20088;-75
2023/09/28 06:13:42;;;;;;;31.65;17.48;;;;;;;-144.73;100.00;54477.47;5050001;28;20041;-74
2023/09/28 06:20:35;;;;;;;29.13;17.83;;;;;;;-144.73;100.00;54467.22;5039489;28;20407;-74
2023/09/28 06:27:22;;;;;;;31.65;17.95;;;;;;;-144.73;100.00;54498.00;5772280;22;20496;-72
2023/09/28 06:33:28;;;;;;;29.40;17.70;;;;;;;-144.73;100.00;54469.28;5084213;28;20050;-72
2023/09/28 06:35:54;;;;;;;28.38;17.00;;;;;;;-144.73;100.00;54487.75;5080152;28;20036;-72
2023/09/28 06:38:20;;;;;;;28.80;15.70;;;;;;;-144.73;100.00;54502.13;5074983;28;20069;-73
2023/09/28 06:40:47;;;;;;;25.58;15.30;;;;;;;-144.73;100.00;54461.06;5081337;28;20027;-72
2023/09/28 06:43:13;;;;;;;23.50;14.88;;;;;;;-144.73;100.00;54459.00;5073230;28;20044;-74
2023/09/28 06:45:38;;;;;;;21.42;14.95;;;;;;;-144.73;100.00;54539.06;5084799;28;20020;-72
2023/09/28 06:48:04;;;;;;;26.88;14.65;;;;;;;-144.73;100.00;54498.00;5075564;28;20036;-71
2023/09/28 06:50:30;;;;;;;27.38;15.02;;;;;;;-144.73;100.00;54530.84;5085662;28;20134;-72
2023/09/28 06:52:56;;;;;;;29.70;14.23;;;;;;;-144.73;100.00;54481.59;5077693;28;20040;-75
2023/09/28 06:55:24;;;;;;;26.42;13.93;;;;;;;-144.73;100.00;54526.75;5074494;28;20028;-74
2023/09/28 06:57:50;;;;;;;24.67;14.40;;;;;;;-144.73;100.00;54512.38;5087975;28;20046;-73
2023/09/28 07:00:16;;;;;;;27.15;13.20;;;;;;;-144.73;100.00;54485.69;5081041;28;20055;-75
2023/09/28 07:02:47;;;;;;;25.38;12.07;;;;;;;-144.73;100.00;54473.38;5087819;28;20061;-74
2023/09/28 07:05:22;;;;;;;20.50;11.95;;;;;;;-144.73;100.00;54448.75;5089191;28;20024;-74
2023/09/28 07:07:48;;;;;;;18.58;12.00;;;;;;;-144.73;100.00;54485.69;5085401;28;20517;-75
2023/09/28 07:10:13;;;;;;;20.50;12.57;;;;;;;-144.73;100.00;54485.69;5080768;28;20024;-72
2023/09/28 07:12:40;;;;;;;21.80;12.25;;;;;;;-144.73;100.00;54452.84;5085377;28;20032;-73
2023/09/28 07:15:06;;;;;;;24.33;12.55;;;;;;;-144.73;100.00;54510.31;5078782;28;20100;-72
2023/09/28 07:17:36;;;;;;;23.80;12.27;;;;;;;-144.73;100.00;54473.38;5088057;28;20027;-72
2023/09/28 07:20:01;;;;;;;25.48;12.50;;;;;;;-144.73;100.00;54522.63;5088691;28;20028;-74
2023/09/28 07:22:27;;;;;;;29.98;12.32;;;;;;;-144.73;100.00;54473.38;5080512;28;20039;-73
2023/09/28 07:24:54;;;;;;;31.45;12.20;;;;;;;-144.73;100.00;54461.06;5087472;28;20047;-72
2023/09/28 07:27:20;;;;;;;16.48;11.85;;;;;;;-144.73;100.00;54518.53;5087114;28;20020;-71
2023/09/28 07:29:45;;;;;;;23.20;12.30;;;;;;;-144.73;100.00;54481.59;5083682;28;20051;-72
2023/09/28 07:32:11;;;;;;;29.17;12.23;;;;;;;-144.73;100.00;54498.00;5081119;28;20031;-73
2023/09/28 07:34:36;;;;;;;29.38;12.10;;;;;;;-144.73;100.00;54467.22;5086520;28;20068;-73
2023/09/28 07:37:03;;;;;;;21.27;10.43;;;;;;;-144.73;100.00;54477.47;5086876;28;20026;-72
2023/09/28 07:39:29;;;;;;;25.80;11.48;;;;;;;-144.73;100.00;54518.53;5061117;28;20036;-72
2023/09/28 07:41:54;;;;;;;35.78;12.68;;;;;;;-144.73;100.00;54483.66;5085000;28;20037;-73
2023/09/28 07:44:19;;;;;;;21.98;11.57;;;;;;;-144.73;100.00;54485.69;5086555;28;20123;-72
2023/09/28 07:46:46;;;;;;;22.38;10.73;;;;;;;-144.73;100.00;54487.75;5083090;28;20046;-72
2023/09/28 07:49:15;;;;;;;29.23;12.35;;;;;;;-144.73;100.00;54522.63;5077465;28;20052;-73
2023/09/28 07:51:41;;;;;;;29.08;11.50;;;;;;;-144.73;100.00;54498.00;5094387;28;20484;-73
2023/09/28 07:54:06;;;;;;;29.23;11.00;;;;;;;-144.73;100.00;54477.47;5077958;28;20032;-74
2023/09/28 07:56:33;;;;;;;26.85;12.02;;;;;;;-144.73;100.00;54446.69;5086127;28;20030;-73
2023/09/28 07:58:59;;;;;;;18.38;10.52;;;;;;;-144.73;100.00;54477.47;5083739;28;20032;-74
2023/09/28 08:01:26;;;;;;;29.90;10.02;;;;;;;-144.73;100.00;54481.59;5080411;28;20036;-74
2023/09/28 08:03:52;;;;;;;27.45;9.77;;;;;;;-144.73;100.00;54502.13;5081405;28;20032;-73
2023/09/28 08:06:17;;;;;;;19.75;9.27;;;;;;;-144.73;100.00;54448.75;5077496;28;20035;-73
2023/09/28 08:08:43;;;;;;;20.85;8.80;;;;;;;-144.73;100.00;54493.91;5084493;28;20043;-74
2023/09/28 08:11:08;;;;;;;23.10;10.30;;;;;;;-144.73;100.00;54539.06;5079975;28;20020;-72
2023/09/28 08:13:34;;;;;;;18.27;9.32;;;;;;;-144.73;100.00;54473.38;5086909;28;20036;-73
2023/09/28 08:16:02;;;;;;;14.65;8.63;;;;;;;-144.73;100.00;54456.97;5087042;28;20476;-75
2023/09/28 08:18:27;;;;;;;19.25;8.68;;;;;;;-144.73;100.00;54479.53;5081270;28;20035;-73
2023/09/28 08:20:53;;;;;;;15.45;9.40;;;;;;;-144.73;100.00;54461.06;5087057;28;20024;-73
2023/09/28 08:23:18;;;;;;;16.73;8.60;;;;;;;-144.73;100.00;54477.47;5080964;28;20036;-73
2023/09/28 08:25:44;;;;;;;23.05;8.73;;;;;;;-144.73;100.00;54475.44;5083477;28;20020;-74
2023/09/28 08:28:09;;;;;;;15.90;7.75;;;;;;;-144.73;100.00;54465.16;5088341;28;20043;-75
2023/09/28 08:30:35;;;;;;;18.17;8.93;;;;;;;-144.73;100.00;54489.81;5083153;28;20032;-73
2023/09/28 08:33:00;;;;;;;17.33;8.27;;;;;;;-144.73;100.00;54432.31;5086369;28;20032;-75
2023/09/28 08:35:26;;;;;;;18.75;8.82;;;;;;;-144.73;100.00;54448.75;5082294;28;20039;-74
2023/09/28 08:37:52;;;;;;;19.52;9.20;;;;;;;-144.73;100.00;54452.84;5085689;28;20098;-73
2023/09/28 08:40:17;;;;;;;24.13;8.98;;;;;;;-144.73;100.00;54481.59;5080573;28;20032;-73
2023/09/28 08:42:44;;;;;;;27.75;8.80;;;;;;;-144.73;100.00;54454.91;5076638;28;20105;-74
2023/09/28 08:45:13;;;;;;;16.25;8.77;;;;;;;-144.73;100.00;54465.16;5066115;28;20016;-73
2023/09/28 08:47:47;;;;;;;23.10;9.18;;;;;;;-144.73;100.00;54461.06;5081423;28;20028;-73
2023/09/28 08:50:17;;;;;;;17.58;9.15;;;;;;;-144.73;100.00;54452.84;5083669;28;20024;-72
2023/09/28 08:52:44;;;;;;;18.77;8.25;;;;;;;-144.73;100.00;54461.06;5084063;28;20016;-73
2023/09/28 08:55:10;;;;;;;18.85;8.85;;;;;;;-144.73;100.00;54498.00;5078550;28;20052;-74
2023/09/28 08:57:36;;;;;;;22.30;8.85;;;;;;;-144.73;100.00;54432.31;5085507;28;20054;-74
2023/09/28 09:00:02;;;;;;;22.48;8.60;;;;;;;-144.73;100.00;54436.44;5086145;28;20022;-75
2023/09/28 09:02:28;;;;;;;18.73;7.90;;;;;;;-144.73;100.00;54461.06;5081933;28;20027;-75
2023/09/28 09:04:53;;;;;;;18.80;7.28;;;;;;;-144.73;100.00;54444.66;5086620;28;20015;-74
2023/09/28 09:07:22;;;;;;;18.35;7.20;;;;;;;-144.73;100.00;54448.75;5080072;28;20028;-72
2023/09/28 09:09:48;;;;;;;14.60;5.93;;;;;;;-144.73;100.00;54485.69;5085306;28;20040;-73
2023/09/28 09:12:13;;;;;;;10.85;6.10;;;;;;;-144.73;100.00;54432.31;5079487;28;20023;-73
2023/09/28 09:14:39;;;;;;;13.07;5.47;;;;;;;-144.73;100.00;54448.75;5101693;28;20036;-74
2023/09/28 09:17:06;;;;;;;25.25;6.20;;;;;;;-144.73;100.00;54444.66;5077810;28;20113;-74
2023/09/28 09:19:32;;;;;;;13.38;5.85;;;;;;;-144.73;100.00;54424.13;5085730;28;20036;-71
2023/09/28 09:21:57;;;;;;;16.50;5.95;;;;;;;-144.73;100.00;54469.28;5085510;28;20020;-72
2023/09/28 09:24:23;;;;;;;11.30;5.90;;;;;;;-144.73;100.00;54442.59;5075986;28;20142;-72
2023/09/28 09:26:52;;;;;;;9.52;5.18;;;;;;;-144.73;100.00;54477.47;5082315;28;20027;-73
2023/09/28 09:29:19;;;;;;;15.45;6.82;;;;;;;-144.73;100.00;54463.13;5078341;28;20040;-73
2023/09/28 09:31:47;;;;;;;18.15;6.63;;;;;;;-144.73;100.00;54461.06;5085436;28;20081;-74
2023/09/28 09:34:21;;;;;;;22.48;6.20;;;;;;;-144.73;100.00;54438.50;5077341;28;20044;-71
2023/09/28 09:36:58;;;;;;;11.95;5.95;;;;;;;-144.73;100.00;54409.75;5082770;28;20119;-73
2023/09/28 09:39:25;;;;;;;11.65;5.50;;;;;;;-144.73;100.00;54432.31;5079483;28;20104;-72
2023/09/28 09:41:55;;;;;;;12.98;5.97;;;;;;;-144.73;100.00;54450.81;5085243;28;20039;-71
2023/09/28 09:44:21;;;;;;;11.45;5.97;;;;;;;-144.73;100.00;54426.16;5079131;28;20040;-71
2023/09/28 09:46:50;;;;;;;14.35;6.40;;;;;;;-144.73;100.00;54411.81;5084428;28;20020;-72
2023/09/28 09:49:17;;;;;;;18.27;5.72;;;;;;;-144.73;100.00;54448.75;5073447;28;20028;-74
2023/09/28 09:51:48;;;;;;;12.05;5.50;;;;;;;-144.73;100.00;54465.16;5079751;28;20469;-74
2023/09/28 09:54:14;;;;;;;20.38;6.68;;;;;;;-144.73;100.00;54452.84;5070062;28;20032;-72
2023/09/28 09:56:44;;;;;;;18.40;5.47;;;;;;;-144.73;100.00;54428.22;5082571;28;20119;-73
2023/09/28 09:59:16;;;;;;;16.58;5.88;;;;;;;-144.73;100.00;54430.28;5070604;28;20052;-73
2023/09/28 10:01:52;;;;;;;12.70;6.47;;;;;;;-144.73;100.00;54446.69;5085853;28;20031;-71
2023/09/28 10:04:19;;;;;;;12.25;6.50;;;;;;;-144.73;100.00;54448.75;5071871;28;20032;-71
2023/09/28 10:06:50;;;;;;;16.23;5.95;;;;;;;-144.73;100.00;54420.00;5086619;28;20125;-71
2023/09/28 10:09:17;;;;;;;12.35;5.97;;;;;;;-144.73;100.00;54417.97;5098112;28;20032;-72
2023/09/28 10:11:46;;;;;;;13.10;4.97;;;;;;;-144.73;100.00;54450.81;5086051;28;20020;-72
2023/09/28 10:14:18;;;;;;;10.23;4.82;;;;;;;-144.73;100.00;54465.16;5081531;28;20032;-73
2023/09/28 10:16:47;;;;;;;10.65;5.43;;;;;;;-144.73;100.00;54407.69;5086737;28;20028;-75
2023/09/28 10:19:15;;;;;;;10.07;5.22;;;;;;;-144.73;100.00;54428.22;5074363;28;20044;-72
2023/09/28 10:21:40;;;;;;;13.70;4.88;;;;;;;-144.73;100.00;54428.22;5083619;28;20484;-72
2023/09/28 10:24:14;;;;;;;14.95;5.00;;;;;;;-144.73;100.00;54424.13;5100952;28;20101;-72
2023/09/28 10:26:51;;;;;;;13.63;5.57;;;;;;;-144.73;100.00;54442.59;5082449;28;20024;-70
2023/09/28 10:29:28;;;;;;;15.77;4.20;;;;;;;-144.73;100.00;54432.31;5076467;28;20036;-76
2023/09/28 10:31:54;;;;;;;9.27;5.22;;;;;;;-144.73;100.00;54411.81;5086010;28;20033;-74
2023/09/28 10:34:24;;;;;;;12.25;4.97;;;;;;;-144.73;100.00;54420.00;5080488;28;20036;-74
2023/09/28 10:37:04;;;;;;;12.57;4.95;;;;;;;-144.73;100.00;54424.13;5102030;28;20108;-73
2023/09/28 10:39:31;;;;;;;10.67;4.87;;;;;;;-144.73;100.00;54426.16;5077602;28;20089;-73
2023/09/28 10:42:05;;;;;;;9.88;5.32;;;;;;;-144.73;100.00;54413.84;5083648;28;20055;-75
2023/09/28 10:44:31;;;;;;;11.82;5.15;;;;;;;-144.73;100.00;54448.75;5082154;28;20028;-75
2023/09/28 10:46:57;;;;;;;19.27;5.55;;;;;;;-144.73;100.00;54430.28;5084907;28;20025;-75
2023/09/28 10:49:27;;;;;;;11.50;5.28;;;;;;;-144.73;100.00;54387.19;5079586;28;20024;-72
2023/09/28 10:51:56;;;;;;;6.18;4.35;;;;;;;-144.73;100.00;54428.22;5083329;28;20039;-72
2023/09/28 10:54:22;;;;;;;12.90;4.60;;;;;;;-144.73;100.00;54407.69;5076366;28;20032;-73
2023/09/28 10:56:48;;;;;;;19.17;5.22;;;;;;;-144.73;100.00;54424.13;5078183;28;20024;-74
2023/09/28 10:59:15;;;;;;;9.30;4.53;;;;;;;-144.73;100.00;54395.38;5079600;28;20028;-75
2023/09/28 11:01:49;;;;;;;14.48;5.20;;;;;;;-144.73;100.00;54417.97;5076772;28;20077;-73
2023/09/28 11:04:16;;;;;;;8.43;4.10;;;;;;;-144.73;100.00;54376.91;5075494;28;20034;-73
2023/09/28 11:06:43;;;;;;;9.93;4.00;;;;;;;-144.73;100.00;54446.69;5079975;28;20062;-74
2023/09/28 11:09:13;;;;;;;12.63;4.78;;;;;;;-144.73;100.00;54415.91;5078259;28;20040;-73